Seer Green, United Kingdom
Current Conditions -  °F | °C
As of 5:50 PM on Tuesday 21 Oct 2014 (Local Time) from EGWU Reporting Station
Rain Showers Rain Showers  
Wind Chill: 50°   Ceiling: 4000
Heat Index: 50°   Visibility: 6mi
Dew Point: 39°   Wind: 21mph
Humidity: 66%   Direction: 340°NNW
Pressure: 29.88"   Gusts: 32mph
Location:  51.62°N, 0.61°W
Report Text: EGWU 211650Z 34018G28KT 9999 -SHRA BKN040 10/04 Q1012 NOSIG
Loading
Personal Weather Stations






























Interactive Weather Map
Tropical Storm Tracking
New forecast layout! Learn more

10-Day Weather Forecast

Advertisements
Track Severe Weather on mobile